Time;durP1;ratioP1;P1;durP2;ratioP2;P2;SDS_P1;SDS_P2;PMS_P1;PMS_P2;Temp;Humidity;BMP_temperature;BMP_pressure;BME280_temperature;BME280_humidity;BME280_pressure;Samples;Min_cycle;Max_cycle;Signal;HPM_P1;HPM_P2
2022/11/21 00:01:23;;;;;;;12.88;9.48;;;-2.00;99.90;;;;;;5052548;28;21912;-56
2022/11/21 00:03:49;;;;;;;13.73;10.00;;;-2.00;99.90;;;;;;5060323;28;20028;-55
2022/11/21 00:06:15;;;;;;;13.75;9.55;;;-2.00;99.90;;;;;;5135407;22;20110;-56
2022/11/21 00:08:41;;;;;;;13.60;9.57;;;-2.00;99.90;;;;;;5055654;28;20263;-59
2022/11/21 00:11:06;;;;;;;14.43;10.27;;;-2.00;99.90;;;;;;5059657;28;20024;-52
2022/11/21 00:13:33;;;;;;;14.35;10.00;;;-2.00;99.90;;;;;;5057877;28;20306;-54
2022/11/21 00:16:06;;;;;;;13.40;9.45;;;-2.00;99.90;;;;;;5059925;28;20389;-54
2022/11/21 00:18:33;;;;;;;13.13;10.13;;;-2.10;99.90;;;;;;5060108;28;20037;-55
2022/11/21 00:21:06;;;;;;;14.30;10.88;;;-2.10;99.90;;;;;;5057509;28;20017;-55
2022/11/21 00:23:32;;;;;;;15.13;10.43;;;-2.10;99.90;;;;;;5054002;28;20020;-55
2022/11/21 00:25:57;;;;;;;13.70;10.40;;;-2.10;99.90;;;;;;5056770;28;20366;-55
2022/11/21 00:28:23;;;;;;;15.85;11.45;;;-2.10;99.90;;;;;;5060056;28;20057;-58
2022/11/21 00:30:49;;;;;;;17.92;11.93;;;-2.10;99.90;;;;;;5060723;28;20032;-52
2022/11/21 00:33:14;;;;;;;16.23;12.85;;;-2.10;99.90;;;;;;5058485;28;20032;-53
2022/11/21 00:35:40;;;;;;;15.98;12.55;;;-2.10;99.90;;;;;;5061224;28;20123;-55
2022/11/21 00:38:05;;;;;;;16.48;12.30;;;-2.10;99.90;;;;;;5061352;28;20025;-58
2022/11/21 00:40:31;;;;;;;16.25;12.25;;;-2.10;99.90;;;;;;5055388;28;20071;-55
2022/11/21 00:42:56;;;;;;;16.58;12.32;;;-2.10;99.90;;;;;;5061287;28;20039;-55
2022/11/21 00:45:22;;;;;;;15.90;11.65;;;-2.20;99.90;;;;;;5058972;28;20021;-58
2022/11/21 00:47:47;;;;;;;14.68;11.63;;;-2.20;99.90;;;;;;5065531;28;20028;-53
2022/11/21 00:50:13;;;;;;;14.52;10.63;;;-2.20;99.90;;;;;;5059923;28;20087;-56
2022/11/21 00:52:38;;;;;;;15.45;11.13;;;-2.30;99.90;;;;;;5064525;28;20111;-52
2022/11/21 00:55:04;;;;;;;16.77;11.60;;;-2.20;99.90;;;;;;5060476;28;20097;-56
2022/11/21 00:57:30;;;;;;;14.45;11.23;;;-2.30;99.90;;;;;;5064415;28;20416;-56
2022/11/21 00:59:55;;;;;;;16.02;10.73;;;-2.40;99.90;;;;;;5062040;28;20228;-54
2022/11/21 01:02:21;;;;;;;13.10;10.38;;;-2.40;99.90;;;;;;5058411;28;20036;-53
2022/11/21 01:04:46;;;;;;;14.38;10.13;;;-2.40;99.90;;;;;;5065001;28;20025;-54
2022/11/21 01:07:13;;;;;;;13.43;10.30;;;-2.50;99.90;;;;;;5059351;28;20112;-56
2022/11/21 01:09:38;;;;;;;15.15;11.05;;;-2.50;99.90;;;;;;5060722;28;20025;-55
2022/11/21 01:12:04;;;;;;;13.32;9.85;;;-2.50;99.90;;;;;;5061643;28;20100;-52
2022/11/21 01:14:30;;;;;;;14.85;9.85;;;-2.60;99.90;;;;;;5060856;28;20060;-53
2022/11/21 01:16:55;;;;;;;14.13;9.35;;;-2.60;99.90;;;;;;5054844;28;20029;-54
2022/11/21 01:19:21;;;;;;;15.13;9.30;;;-2.50;99.90;;;;;;5062852;28;20443;-56
2022/11/21 01:21:47;;;;;;;17.70;10.05;;;-2.50;99.90;;;;;;5055118;28;20029;-52
2022/11/21 01:24:12;;;;;;;11.48;8.80;;;-2.50;99.90;;;;;;5066524;28;20064;-54
2022/11/21 01:26:38;;;;;;;12.27;9.02;;;-2.50;99.90;;;;;;5058265;28;20100;-53
2022/11/21 01:29:05;;;;;;;12.45;8.52;;;-2.50;99.90;;;;;;5056817;28;20071;-57
2022/11/21 01:31:31;;;;;;;9.35;7.38;;;-2.40;99.90;;;;;;5049615;28;20161;-55
2022/11/21 01:33:58;;;;;;;12.48;8.45;;;-2.50;99.90;;;;;;5059109;28;20028;-57
2022/11/21 01:36:28;;;;;;;10.85;7.45;;;-2.50;99.90;;;;;;5061851;28;20037;-52
2022/11/21 01:38:56;;;;;;;11.68;8.10;;;-2.40;99.90;;;;;;5057701;28;20075;-57
2022/11/21 01:41:25;;;;;;;11.95;8.32;;;-2.50;99.90;;;;;;5055854;28;20119;-56
2022/11/21 01:43:51;;;;;;;9.85;6.85;;;-2.40;99.90;;;;;;5058281;28;20013;-55
2022/11/21 01:46:19;;;;;;;9.45;6.90;;;-2.40;99.90;;;;;;5061700;28;20031;-52
2022/11/21 01:48:56;;;;;;;10.25;7.78;;;-2.40;99.90;;;;;;5057522;28;20021;-56
2022/11/21 01:51:36;;;;;;;10.20;7.15;;;-2.40;99.90;;;;;;5048190;28;20028;-53
2022/11/21 01:54:17;;;;;;;11.93;7.30;;;-2.40;99.90;;;;;;5060113;28;20024;-56
2022/11/21 01:56:49;;;;;;;10.20;7.75;;;-2.40;99.90;;;;;;5062048;28;20031;-54
2022/11/21 01:59:23;;;;;;;9.60;7.65;;;-2.50;99.90;;;;;;5056160;28;20016;-56
2022/11/21 02:01:52;;;;;;;10.80;7.78;;;-2.50;99.90;;;;;;5057920;28;20037;-57
2022/11/21 02:04:18;;;;;;;8.30;6.78;;;-2.50;99.90;;;;;;5052564;28;20032;-56
2022/11/21 02:06:44;;;;;;;10.07;7.60;;;-2.40;99.90;;;;;;5059481;28;20082;-57
2022/11/21 02:09:10;;;;;;;10.32;6.88;;;-2.40;99.90;;;;;;5059453;28;20028;-56
2022/11/21 02:11:41;;;;;;;8.85;6.97;;;-2.40;99.90;;;;;;5060874;28;20036;-56
2022/11/21 02:14:07;;;;;;;8.40;6.60;;;-2.40;99.90;;;;;;5060347;28;20035;-57
2022/11/21 02:16:33;;;;;;;10.68;6.65;;;-2.40;99.90;;;;;;5055964;28;20071;-56
2022/11/21 02:18:59;;;;;;;9.38;6.78;;;-2.40;99.90;;;;;;5058567;28;20036;-56
2022/11/21 02:21:54;;;;;;;10.77;7.07;;;-2.40;99.90;;;;;;5056764;28;20404;-58
2022/11/21 02:24:38;;;;;;;12.15;6.45;;;-2.40;99.90;;;;;;5049509;28;20032;-56
2022/11/21 02:27:04;;;;;;;8.30;6.90;;;-2.40;99.90;;;;;;5057502;28;20021;-56
2022/11/21 02:29:30;;;;;;;10.75;7.60;;;-2.40;99.90;;;;;;5055148;28;20024;-55
2022/11/21 02:32:01;;;;;;;10.10;6.97;;;-2.40;99.90;;;;;;5058120;28;20378;-55
2022/11/21 02:34:27;;;;;;;9.00;5.90;;;-2.40;99.90;;;;;;5061056;28;20266;-58
2022/11/21 02:36:53;;;;;;;9.45;6.28;;;-2.40;99.90;;;;;;5056001;28;20033;-52
2022/11/21 02:39:25;;;;;;;8.82;6.30;;;-2.40;99.90;;;;;;5055437;28;20024;-53
2022/11/21 02:41:58;;;;;;;7.88;6.35;;;-2.40;99.90;;;;;;5059694;28;20025;-55
2022/11/21 02:44:32;;;;;;;8.10;5.95;;;-2.40;99.90;;;;;;5056891;28;20433;-54
2022/11/21 02:46:57;;;;;;;7.00;5.90;;;-2.40;99.90;;;;;;5056573;28;20094;-57
2022/11/21 02:49:38;;;;;;;9.63;6.55;;;-2.40;99.90;;;;;;5060709;28;20549;-57
2022/11/21 02:52:04;;;;;;;8.43;6.18;;;-2.40;99.90;;;;;;5054935;28;20116;-56
2022/11/21 02:54:29;;;;;;;9.40;6.63;;;-2.50;99.90;;;;;;5060751;28;20100;-56
2022/11/21 02:56:56;;;;;;;8.27;6.65;;;-2.50;99.90;;;;;;5060368;28;20032;-57
2022/11/21 02:59:22;;;;;;;9.15;6.95;;;-2.50;99.90;;;;;;5060831;28;20052;-53
2022/11/21 03:01:48;;;;;;;7.43;6.05;;;-2.50;99.90;;;;;;5057930;28;20399;-55
2022/11/21 03:04:14;;;;;;;7.93;6.45;;;-2.50;99.90;;;;;;5059145;28;20031;-57
2022/11/21 03:06:39;;;;;;;9.65;6.45;;;-2.50;99.90;;;;;;5060505;28;20115;-55
2022/11/21 03:09:05;;;;;;;10.10;6.90;;;-2.60;99.90;;;;;;5059410;28;20069;-55
2022/11/21 03:11:30;;;;;;;9.35;6.70;;;-2.60;99.90;;;;;;5054619;28;20060;-57
2022/11/21 03:13:56;;;;;;;8.77;7.13;;;-2.70;99.90;;;;;;5059381;28;20028;-56
2022/11/21 03:16:21;;;;;;;8.65;6.43;;;-2.70;99.90;;;;;;5057403;28;20029;-55
2022/11/21 03:18:47;;;;;;;10.35;7.00;;;-2.70;99.90;;;;;;5063620;28;20025;-57
2022/11/21 03:21:12;;;;;;;10.15;6.72;;;-2.70;99.90;;;;;;5056250;28;20485;-55
2022/11/21 03:23:38;;;;;;;9.75;7.00;;;-2.80;99.90;;;;;;5063375;28;20401;-56
2022/11/21 03:26:03;;;;;;;11.13;6.88;;;-2.80;99.90;;;;;;5058372;28;20036;-53
2022/11/21 03:28:29;;;;;;;10.02;7.50;;;-2.80;99.90;;;;;;5057711;28;20032;-55
2022/11/21 03:30:55;;;;;;;9.95;7.85;;;-2.80;99.90;;;;;;5059536;28;20534;-55
2022/11/21 03:33:20;;;;;;;10.57;7.07;;;-2.80;99.90;;;;;;5047967;28;20036;-57
2022/11/21 03:35:46;;;;;;;10.20;7.28;;;-2.80;99.90;;;;;;5055891;28;20033;-56
2022/11/21 03:38:12;;;;;;;10.13;7.28;;;-2.80;99.90;;;;;;5054430;28;20033;-54
2022/11/21 03:40:37;;;;;;;10.18;7.18;;;-2.80;99.90;;;;;;5055882;28;20159;-56
2022/11/21 03:43:07;;;;;;;10.38;7.00;;;-2.80;99.90;;;;;;5058349;28;20068;-57
2022/11/21 03:45:32;;;;;;;11.20;7.25;;;-2.80;99.90;;;;;;5056556;28;20078;-53
2022/11/21 03:47:58;;;;;;;8.65;7.25;;;-2.90;99.90;;;;;;5052101;28;20409;-56
2022/11/21 03:50:24;;;;;;;11.05;7.50;;;-2.90;99.90;;;;;;5060150;28;20079;-57
2022/11/21 03:52:49;;;;;;;10.50;7.60;;;-2.90;99.90;;;;;;5051160;28;20037;-55
2022/11/21 03:55:15;;;;;;;9.95;7.10;;;-3.00;99.90;;;;;;5057180;28;20180;-54
2022/11/21 03:57:40;;;;;;;9.13;7.43;;;-3.00;99.90;;;;;;5060032;28;20056;-58
2022/11/21 04:00:06;;;;;;;10.27;7.70;;;-3.00;99.90;;;;;;5056862;28;20409;-55
2022/11/21 04:02:32;;;;;;;10.77;7.70;;;-3.00;99.90;;;;;;5062088;28;20461;-52
2022/11/21 04:04:58;;;;;;;9.05;7.10;;;-3.00;99.90;;;;;;5061242;28;20031;-54
2022/11/21 04:07:23;;;;;;;10.70;7.32;;;-3.00;99.90;;;;;;5064722;28;20679;-53
2022/11/21 04:09:49;;;;;;;12.48;7.95;;;-3.00;99.90;;;;;;5059738;28;20588;-54
2022/11/21 04:12:14;;;;;;;9.82;7.85;;;-3.00;99.90;;;;;;5061299;28;20090;-55
2022/11/21 04:14:40;;;;;;;11.65;8.27;;;-3.10;99.90;;;;;;5062006;28;20033;-54
2022/11/21 04:17:05;;;;;;;9.15;7.43;;;-3.10;99.90;;;;;;5061183;28;20090;-52
2022/11/21 04:19:31;;;;;;;12.98;7.53;;;-3.10;99.90;;;;;;5063804;28;20099;-52
2022/11/21 04:21:56;;;;;;;10.38;6.70;;;-3.10;99.90;;;;;;5057553;28;20102;-54
2022/11/21 04:24:22;;;;;;;9.90;7.63;;;-3.10;99.90;;;;;;5066632;28;20095;-51
2022/11/21 04:26:47;;;;;;;8.60;7.03;;;-3.20;99.90;;;;;;5057757;28;20029;-52
2022/11/21 04:29:13;;;;;;;11.20;7.65;;;-3.20;99.90;;;;;;5058344;28;20043;-55
2022/11/21 04:31:39;;;;;;;11.00;7.90;;;-3.20;99.90;;;;;;5059879;28;20063;-56
2022/11/21 04:34:04;;;;;;;11.98;8.30;;;-3.20;99.90;;;;;;5057849;28;20083;-53
2022/11/21 04:36:30;;;;;;;12.02;7.35;;;-3.30;99.90;;;;;;5059028;28;20037;-53
2022/11/21 04:38:55;;;;;;;9.48;7.40;;;-3.30;99.90;;;;;;5056325;28;20504;-53
2022/11/21 04:41:21;;;;;;;11.98;8.73;;;-3.30;99.90;;;;;;5060898;28;20028;-58
2022/11/21 04:43:46;;;;;;;11.77;7.82;;;-3.30;99.90;;;;;;5057460;28;20446;-55
2022/11/21 04:46:12;;;;;;;11.00;7.80;;;-3.30;99.90;;;;;;5062525;28;20028;-52
2022/11/21 04:48:38;;;;;;;10.30;7.88;;;-3.30;99.90;;;;;;5063307;28;20031;-55
2022/11/21 04:51:03;;;;;;;10.52;7.85;;;-3.30;99.90;;;;;;5060942;28;20025;-58
2022/11/21 04:53:29;;;;;;;13.10;8.85;;;-3.40;99.90;;;;;;5065151;28;20029;-53
2022/11/21 04:55:54;;;;;;;13.68;8.48;;;-3.40;99.90;;;;;;5059613;28;20047;-51
2022/11/21 04:58:20;;;;;;;13.85;8.40;;;-3.40;99.90;;;;;;5062605;28;20101;-56
2022/11/21 05:00:45;;;;;;;13.18;9.45;;;-3.40;99.90;;;;;;5061462;28;20457;-52
2022/11/21 05:03:10;;;;;;;13.70;8.93;;;-3.40;99.90;;;;;;5061711;28;20539;-54
2022/11/21 05:05:36;;;;;;;13.73;9.40;;;-3.40;99.90;;;;;;5061479;28;20041;-56
2022/11/21 05:08:02;;;;;;;13.60;9.18;;;-3.40;99.90;;;;;;5059662;28;20025;-58
2022/11/21 05:10:27;;;;;;;15.23;8.98;;;-3.50;99.90;;;;;;5061093;28;20112;-56
2022/11/21 05:15:44;;;;;;;13.85;8.85;;;-3.50;99.90;;;;;;5056142;28;20114;-54
2022/11/21 05:18:10;;;;;;;15.52;10.90;;;-3.50;99.90;;;;;;5061129;28;20068;-53
2022/11/21 05:20:36;;;;;;;16.88;12.25;;;-3.50;99.90;;;;;;5060049;28;20403;-55
2022/11/21 05:23:01;;;;;;;16.15;10.40;;;-3.50;99.90;;;;;;5058079;28;20029;-55
2022/11/21 05:25:27;;;;;;;14.10;10.63;;;-3.60;99.90;;;;;;5061045;28;20028;-57
2022/11/21 05:27:55;;;;;;;13.20;8.80;;;-3.60;99.90;;;;;;5058582;28;20083;-56
2022/11/21 05:30:21;;;;;;;14.10;9.57;;;-3.60;99.90;;;;;;5056616;28;20407;-56
2022/11/21 05:32:46;;;;;;;15.27;10.02;;;-3.60;99.90;;;;;;5050284;28;20033;-57
2022/11/21 05:35:12;;;;;;;14.48;9.63;;;-3.60;99.90;;;;;;5057731;28;20855;-56
2022/11/21 05:37:37;;;;;;;14.57;9.18;;;-3.60;99.90;;;;;;5051609;28;20469;-55
2022/11/21 05:40:03;;;;;;;14.15;9.32;;;-3.60;99.90;;;;;;5058391;28;20037;-58
2022/11/21 05:45:13;;;;;;;15.02;10.55;;;-3.60;99.90;;;;;;5051026;28;20195;-55
2022/11/21 05:47:40;;;;;;;14.60;10.13;;;-3.60;99.90;;;;;;5060925;28;20033;-54
2022/11/21 05:50:06;;;;;;;14.95;10.52;;;-3.60;99.90;;;;;;5058780;28;20082;-55
2022/11/21 05:52:32;;;;;;;13.02;9.13;;;-3.60;99.90;;;;;;5063359;28;20036;-56
2022/11/21 05:54:57;;;;;;;14.88;9.73;;;-3.60;99.90;;;;;;5052808;28;20035;-55
2022/11/21 05:57:23;;;;;;;16.65;10.70;;;-3.60;99.90;;;;;;5051957;28;20033;-56
2022/11/21 05:59:48;;;;;;;17.10;9.75;;;-3.60;99.90;;;;;;5063925;28;20036;-57
2022/11/21 06:04:58;;;;;;;15.75;9.82;;;-3.60;99.90;;;;;;5091019;22;20470;-59
2022/11/21 06:07:24;;;;;;;15.52;10.98;;;-3.70;99.90;;;;;;5087541;28;20040;-62
2022/11/21 06:09:49;;;;;;;14.35;10.60;;;-3.70;99.90;;;;;;5089308;28;20097;-62
2022/11/21 06:12:15;;;;;;;15.00;10.48;;;-3.70;99.90;;;;;;5088035;28;20084;-62
2022/11/21 06:14:40;;;;;;;13.98;9.95;;;-3.70;99.90;;;;;;5076691;28;20073;-62
2022/11/21 06:17:06;;;;;;;14.15;10.35;;;-3.70;99.90;;;;;;5088351;28;20028;-62
2022/11/21 06:19:31;;;;;;;16.52;10.85;;;-3.60;99.90;;;;;;5088764;28;20020;-61
2022/11/21 06:21:57;;;;;;;15.57;10.65;;;-3.70;99.90;;;;;;5088876;28;20105;-61
2022/11/21 06:24:23;;;;;;;14.65;10.60;;;-3.60;99.90;;;;;;5089120;28;20140;-62
2022/11/21 06:26:48;;;;;;;17.08;10.95;;;-3.60;99.90;;;;;;5088721;28;20020;-61
2022/11/21 06:29:15;;;;;;;13.52;10.75;;;-3.60;99.90;;;;;;5089149;28;20039;-62
2022/11/21 06:31:41;;;;;;;15.65;11.45;;;-3.60;99.90;;;;;;5088727;28;20073;-61
2022/11/21 06:34:06;;;;;;;15.02;10.20;;;-3.60;99.90;;;;;;5088629;28;20043;-61
2022/11/21 06:36:32;;;;;;;13.00;10.25;;;-3.60;99.90;;;;;;5087877;28;20035;-61
2022/11/21 06:38:57;;;;;;;15.68;11.25;;;-3.60;99.90;;;;;;5086230;28;20040;-62
2022/11/21 06:41:25;;;;;;;17.02;11.15;;;-3.60;99.90;;;;;;5088357;28;20093;-61
2022/11/21 06:43:51;;;;;;;15.60;11.02;;;-3.60;99.90;;;;;;5088720;28;20020;-62
2022/11/21 06:46:17;;;;;;;16.55;10.98;;;-3.60;99.90;;;;;;5088627;28;20055;-61
2022/11/21 06:48:43;;;;;;;15.07;10.48;;;-3.60;99.90;;;;;;5088537;28;20034;-62
2022/11/21 06:51:18;;;;;;;16.38;11.10;;;-3.60;99.90;;;;;;5089320;28;20487;-62
2022/11/21 06:53:44;;;;;;;15.13;10.88;;;-3.70;99.90;;;;;;5088911;28;20016;-61
2022/11/21 06:56:10;;;;;;;14.60;10.68;;;-3.70;99.90;;;;;;5088633;28;20132;-61
2022/11/21 06:58:35;;;;;;;15.90;10.77;;;-3.70;99.90;;;;;;5070496;28;20028;-61
2022/11/21 07:01:06;;;;;;;15.52;11.80;;;-3.70;99.90;;;;;;5088356;28;20028;-61
2022/11/21 07:03:32;;;;;;;18.73;11.93;;;-3.70;99.90;;;;;;5088039;28;20032;-61
2022/11/21 07:06:00;;;;;;;19.95;12.18;;;-3.70;99.90;;;;;;5087632;28;20438;-61
2022/11/21 07:08:30;;;;;;;17.83;12.13;;;-3.70;99.90;;;;;;5088437;28;20020;-61
2022/11/21 07:10:59;;;;;;;15.35;11.15;;;-3.70;99.90;;;;;;5088362;28;20031;-61
2022/11/21 07:13:24;;;;;;;16.98;11.75;;;-3.70;99.90;;;;;;5088427;28;20077;-61
2022/11/21 07:15:52;;;;;;;14.10;10.93;;;-3.70;99.90;;;;;;5088071;28;20036;-61
2022/11/21 07:18:20;;;;;;;16.67;11.25;;;-3.70;99.90;;;;;;5085975;28;20148;-61
2022/11/21 07:20:46;;;;;;;17.60;11.23;;;-3.80;99.90;;;;;;5087901;28;20516;-61
2022/11/21 07:23:12;;;;;;;14.98;10.88;;;-3.70;99.90;;;;;;5074288;28;20036;-61
2022/11/21 07:25:41;;;;;;;18.70;11.57;;;-3.80;99.90;;;;;;5087031;28;20162;-61
2022/11/21 07:28:07;;;;;;;14.32;10.60;;;-3.80;99.90;;;;;;5076848;28;20024;-62
2022/11/21 07:30:33;;;;;;;16.27;11.52;;;-3.80;99.90;;;;;;5089520;28;20028;-61
2022/11/21 07:33:01;;;;;;;16.58;11.77;;;-3.80;99.90;;;;;;5082072;28;20487;-61
2022/11/21 07:35:27;;;;;;;18.83;12.52;;;-3.80;99.90;;;;;;5091568;28;20063;-60
2022/11/21 07:37:53;;;;;;;17.70;12.32;;;-3.80;99.90;;;;;;5092138;28;20035;-61
2022/11/21 07:40:19;;;;;;;14.40;10.55;;;-3.80;99.90;;;;;;5091688;28;20024;-61
2022/11/21 07:42:45;;;;;;;15.30;11.80;;;-3.80;99.90;;;;;;5091964;28;20051;-61
2022/11/21 07:45:12;;;;;;;18.85;12.25;;;-3.90;99.90;;;;;;5091678;28;20100;-60
2022/11/21 07:47:37;;;;;;;19.70;11.27;;;-3.80;99.90;;;;;;5091366;28;21479;-61
2022/11/21 07:50:04;;;;;;;16.33;11.00;;;-3.80;99.90;;;;;;5091969;28;20020;-60
2022/11/21 07:52:30;;;;;;;16.98;12.05;;;-3.80;99.90;;;;;;5091344;28;20115;-61
2022/11/21 07:54:56;;;;;;;18.77;11.77;;;-3.80;99.90;;;;;;5091896;28;20107;-60
2022/11/21 07:57:22;;;;;;;20.70;13.35;;;-3.80;99.90;;;;;;5091742;28;20081;-60
2022/11/21 07:59:47;;;;;;;17.45;12.25;;;-3.80;99.90;;;;;;5091276;28;20036;-61
2022/11/21 08:02:24;;;;;;;18.60;12.55;;;-3.80;99.90;;;;;;5090946;28;20094;-61
2022/11/21 08:04:50;;;;;;;22.20;12.98;;;-3.80;99.90;;;;;;5087917;28;20495;-60
2022/11/21 08:07:17;;;;;;;20.30;12.95;;;-3.80;99.90;;;;;;5091492;28;20067;-61
2022/11/21 08:09:43;;;;;;;18.40;12.23;;;-3.70;99.90;;;;;;5091714;28;20513;-61
2022/11/21 08:12:10;;;;;;;17.73;12.27;;;-3.70;99.90;;;;;;5090995;28;20024;-61
2022/11/21 08:14:36;;;;;;;16.27;12.18;;;-3.70;99.90;;;;;;5087714;28;20032;-61
2022/11/21 08:17:02;;;;;;;20.13;12.23;;;-3.70;99.90;;;;;;5091590;28;20039;-61
2022/11/21 08:19:28;;;;;;;19.20;13.38;;;-3.60;99.90;;;;;;5076739;28;20107;-61
2022/11/21 08:21:53;;;;;;;22.20;13.20;;;-3.60;99.90;;;;;;5092006;28;20115;-59
2022/11/21 08:24:19;;;;;;;17.75;11.95;;;-3.50;99.90;;;;;;5091251;28;20055;-61
2022/11/21 08:26:45;;;;;;;20.75;13.73;;;-3.50;99.90;;;;;;5091359;28;20110;-61
2022/11/21 08:29:11;;;;;;;21.90;13.88;;;-3.40;99.90;;;;;;5091446;28;20028;-60
2022/11/21 08:31:38;;;;;;;18.50;13.32;;;-3.30;99.90;;;;;;5086311;28;20077;-61
2022/11/21 08:34:04;;;;;;;19.58;13.57;;;-3.20;99.90;;;;;;5091498;28;20122;-60
2022/11/21 08:36:29;;;;;;;18.65;13.43;;;-3.10;99.90;;;;;;5073678;28;20047;-60
2022/11/21 08:38:55;;;;;;;21.38;13.70;;;-3.00;99.90;;;;;;5091455;28;20076;-61
2022/11/21 08:44:05;;;;;;;17.05;13.20;;;-2.90;99.90;;;;;;5089736;28;20031;-61
2022/11/21 08:46:34;;;;;;;21.70;14.50;;;-2.80;99.90;;;;;;5091910;28;20483;-61
2022/11/21 08:49:00;;;;;;;27.02;15.13;;;-2.70;99.90;;;;;;5091254;28;20090;-61
2022/11/21 08:51:25;;;;;;;20.40;12.90;;;-2.60;99.90;;;;;;5091238;28;20065;-61
2022/11/21 08:53:51;;;;;;;18.65;12.63;;;-2.60;99.90;;;;;;5091440;28;20012;-61
2022/11/21 08:56:16;;;;;;;20.92;14.10;;;-2.60;99.90;;;;;;5091318;28;20075;-61
2022/11/21 08:58:42;;;;;;;20.98;13.23;;;-2.60;99.90;;;;;;5090849;28;20121;-61
2022/11/21 09:01:07;;;;;;;20.60;13.73;;;-2.60;99.90;;;;;;5091045;28;20024;-61
2022/11/21 09:03:34;;;;;;;19.30;13.30;;;-2.60;99.90;;;;;;5090111;28;20024;-61
2022/11/21 09:05:59;;;;;;;19.20;13.25;;;-2.50;99.90;;;;;;5090119;28;20016;-61
2022/11/21 09:08:25;;;;;;;19.55;12.73;;;-2.50;99.90;;;;;;5091038;28;20031;-61
2022/11/21 09:10:51;;;;;;;22.00;14.65;;;-2.40;99.90;;;;;;5090606;28;20031;-61
2022/11/21 09:13:16;;;;;;;22.80;12.93;;;-2.30;99.90;;;;;;5090815;28;20081;-61
2022/11/21 09:18:26;;;;;;;20.27;13.73;;;-2.30;99.90;;;;;;5083654;28;20051;-59
2022/11/21 09:20:52;;;;;;;18.83;12.93;;;-2.20;99.90;;;;;;5091546;28;20028;-59
2022/11/21 09:23:18;;;;;;;17.65;12.23;;;-2.10;99.90;;;;;;5093652;28;20403;-59
2022/11/21 09:25:44;;;;;;;20.30;13.88;;;-2.10;99.90;;;;;;5073109;28;20059;-61
2022/11/21 09:28:11;;;;;;;20.52;14.30;;;-2.00;99.90;;;;;;5093527;28;20051;-59
2022/11/21 09:30:38;;;;;;;22.13;13.75;;;-2.00;99.90;;;;;;5090183;28;20032;-59
2022/11/21 09:33:06;;;;;;;23.35;13.60;;;-2.00;99.90;;;;;;5092110;28;20419;-58
2022/11/21 09:35:32;;;;;;;23.25;14.60;;;-1.90;99.90;;;;;;5099933;28;20123;-59
2022/11/21 09:37:58;;;;;;;21.23;13.60;;;-1.90;99.90;;;;;;5093827;28;20285;-59
2022/11/21 09:40:24;;;;;;;20.33;13.00;;;-1.90;99.90;;;;;;5075195;28;20337;-58
2022/11/21 09:42:59;;;;;;;21.77;13.90;;;-1.80;99.90;;;;;;5088513;28;20039;-59
2022/11/21 09:45:32;;;;;;;18.95;13.25;;;-1.80;99.90;;;;;;5089326;28;20077;-59
2022/11/21 09:48:01;;;;;;;20.17;13.50;;;-1.80;99.90;;;;;;5089915;28;20028;-59
2022/11/21 09:50:35;;;;;;;24.42;15.43;;;-1.70;99.90;;;;;;5089194;28;20051;-59
2022/11/21 09:53:06;;;;;;;29.33;16.35;;;-1.70;99.90;;;;;;5089003;28;20028;-59
2022/11/21 09:55:34;;;;;;;22.98;15.00;;;-1.60;99.90;;;;;;5070494;28;20155;-59
2022/11/21 09:58:08;;;;;;;24.60;15.02;;;-1.50;99.90;;;;;;5089851;28;20028;-59
2022/11/21 10:00:33;;;;;;;24.75;16.75;;;-1.40;99.90;;;;;;5089363;28;20024;-59
2022/11/21 10:02:59;;;;;;;22.88;15.27;;;-1.30;99.90;;;;;;5088522;28;20144;-59
2022/11/21 10:05:36;;;;;;;24.67;15.95;;;-1.10;99.90;;;;;;5078378;28;20038;-59
2022/11/21 10:08:15;;;;;;;24.08;16.85;;;-0.90;99.90;;;;;;5089111;28;20020;-59
2022/11/21 10:10:53;;;;;;;34.10;22.02;;;-0.80;99.90;;;;;;5089110;28;20023;-59
2022/11/21 10:13:44;;;;;;;28.40;20.80;;;-0.70;99.90;;;;;;5066354;28;20202;-60
2022/11/21 10:16:30;;;;;;;23.00;16.02;;;-0.50;99.90;;;;;;5089185;28;20115;-60
2022/11/21 10:19:42;;;;;;;34.80;19.98;;;-0.40;99.90;;;;;;5089053;28;20494;-61
2022/11/21 10:22:24;;;;;;;19.58;14.57;;;-0.30;99.90;;;;;;5036315;28;20036;-60
2022/11/21 10:24:56;;;;;;;21.35;15.07;;;-0.20;99.90;;;;;;5077863;28;20050;-61
2022/11/21 10:27:36;;;;;;;23.45;16.05;;;-0.10;99.90;;;;;;5082304;28;20051;-60
2022/11/21 10:30:13;;;;;;;18.33;11.88;;;0.00;99.90;;;;;;5078342;28;20020;-60
2022/11/21 10:32:42;;;;;;;16.13;11.80;;;0.00;99.90;;;;;;5088559;28;20023;-60
2022/11/21 10:35:43;;;;;;;17.20;11.45;;;0.00;99.90;;;;;;5089035;28;20024;-61
2022/11/21 10:38:14;;;;;;;18.33;12.80;;;0.10;99.90;;;;;;5088453;28;20023;-61
2022/11/21 10:40:46;;;;;;;17.48;12.80;;;0.10;99.90;;;;;;5088935;28;20031;-61
2022/11/21 10:46:18;;;;;;;22.23;15.20;;;0.20;99.90;;;;;;5081268;28;20365;-61
2022/11/21 10:48:54;;;;;;;15.70;11.73;;;0.30;99.90;;;;;;5088721;28;20503;-61
2022/11/21 10:51:41;;;;;;;16.25;11.70;;;0.40;99.90;;;;;;5081329;28;20028;-61
2022/11/21 10:57:14;;;;;;;14.95;11.20;;;0.50;99.90;;;;;;5088998;28;20035;-61
2022/11/21 10:59:54;;;;;;;16.08;10.48;;;0.60;99.90;;;;;;5077084;28;20028;-61
2022/11/21 11:02:23;;;;;;;13.15;9.95;;;0.60;99.90;;;;;;5086856;28;20406;-60
2022/11/21 11:05:14;;;;;;;16.45;11.52;;;0.70;99.90;;;;;;5089358;28;20024;-61
2022/11/21 11:07:40;;;;;;;12.48;9.13;;;0.80;99.90;;;;;;5092782;28;20558;-61
2022/11/21 11:10:22;;;;;;;13.98;9.07;;;0.90;99.90;;;;;;5092468;28;20128;-61
2022/11/21 11:15:35;;;;;;;10.55;8.00;;;0.90;99.90;;;;;;5087195;28;20093;-61
2022/11/21 11:18:03;;;;;;;11.18;8.18;;;0.90;99.90;;;;;;5093211;28;20024;-61
2022/11/21 11:20:39;;;;;;;12.93;8.80;;;0.90;99.90;;;;;;5092770;28;20031;-61
2022/11/21 11:23:33;;;;;;;13.05;8.48;;;0.90;99.90;;;;;;5092360;28;20368;-61
2022/11/21 11:25:59;;;;;;;12.45;8.90;;;0.90;99.90;;;;;;5054901;28;20110;-61
2022/11/21 11:28:32;;;;;;;11.77;9.25;;;0.90;99.90;;;;;;5092737;28;20184;-61
2022/11/21 11:30:58;;;;;;;12.55;8.40;;;0.90;99.90;;;;;;5092010;28;20012;-61
2022/11/21 11:33:33;;;;;;;12.40;8.82;;;1.00;99.90;;;;;;5092151;28;20418;-61
2022/11/21 11:36:14;;;;;;;12.63;8.48;;;0.90;99.90;;;;;;5092285;28;20027;-62
2022/11/21 11:38:42;;;;;;;12.60;9.02;;;1.00;99.90;;;;;;5087545;28;20028;-62
2022/11/21 11:41:21;;;;;;;11.75;8.82;;;1.00;99.90;;;;;;5091793;28;20027;-62
2022/11/21 11:50:10;;;;;;;12.40;7.65;;;1.20;99.90;;;;;;5089034;28;20058;-62
2022/11/21 11:52:27;;;;;;;9.75;7.38;;;1.30;99.90;;;;;;5090671;28;20093;-62
2022/11/21 11:55:00;;;;;;;9.38;7.85;;;1.30;99.90;;;;;;5079962;28;20028;-62
2022/11/21 11:57:30;;;;;;;10.10;7.95;;;1.30;99.90;;;;;;5074507;28;20035;-62
2022/11/21 12:00:26;;;;;;;8.98;6.90;;;1.30;99.90;;;;;;5091880;28;20040;-62
2022/11/21 12:03:02;;;;;;;10.85;7.25;;;1.40;99.90;;;;;;5071676;28;20052;-62
2022/11/21 12:05:31;;;;;;;9.52;7.13;;;1.40;99.90;;;;;;5091596;28;20032;-63
2022/11/21 12:08:18;;;;;;;9.27;6.85;;;1.40;99.90;;;;;;5095249;22;20094;-59
2022/11/21 12:13:40;;;;;;;10.02;7.20;;;1.40;99.90;;;;;;5066977;28;20035;-58
2022/11/21 12:16:11;;;;;;;11.73;6.95;;;1.40;99.90;;;;;;5071274;28;20122;-59
2022/11/21 12:19:00;;;;;;;9.13;7.80;;;1.50;99.90;;;;;;5071815;28;20132;-60
2022/11/21 12:21:27;;;;;;;11.50;6.80;;;1.60;99.90;;;;;;5062383;28;20024;-59
2022/11/21 12:23:55;;;;;;;6.95;5.53;;;1.70;99.90;;;;;;5072027;28;20020;-59
2022/11/21 12:26:56;;;;;;;8.77;6.25;;;1.70;99.90;;;;;;5071822;28;20443;-58
2022/11/21 12:29:41;;;;;;;7.32;5.95;;;1.80;99.90;;;;;;5068610;28;20103;-61
2022/11/21 12:32:06;;;;;;;8.82;5.20;;;1.90;99.90;;;;;;5072819;28;20024;-60
2022/11/21 12:34:41;;;;;;;7.00;4.90;;;1.90;99.90;;;;;;5071290;28;20033;-61
2022/11/21 12:37:15;;;;;;;6.63;5.07;;;1.90;99.90;;;;;;5071435;28;20094;-58
2022/11/21 12:39:59;;;;;;;6.75;4.70;;;1.90;99.90;;;;;;5071456;28;20033;-59
2022/11/21 12:42:49;;;;;;;6.90;5.32;;;1.90;99.90;;;;;;5071311;28;20029;-59
2022/11/21 12:45:31;;;;;;;24.55;12.30;;;1.90;99.90;;;;;;5070164;28;20031;-61
2022/11/21 12:56:59;;;;;;;7.97;5.53;;;1.90;99.90;;;;;;5070951;28;20040;-58
2022/11/21 12:59:24;;;;;;;8.52;5.65;;;1.90;99.90;;;;;;5064491;28;20024;-61
2022/11/21 13:01:55;;;;;;;6.70;4.78;;;1.80;99.90;;;;;;5070948;28;20035;-60
2022/11/21 13:04:32;;;;;;;7.28;5.38;;;1.90;99.90;;;;;;5071162;28;20031;-60
2022/11/21 13:06:58;;;;;;;8.02;5.93;;;1.80;99.90;;;;;;5070056;28;20032;-59
2022/11/21 13:09:26;;;;;;;7.88;4.80;;;1.80;99.90;;;;;;5070602;28;20039;-57
2022/11/21 13:12:17;;;;;;;10.18;5.47;;;1.80;99.90;;;;;;5070972;28;20460;-58
2022/11/21 13:15:09;;;;;;;8.85;5.97;;;1.70;99.90;;;;;;5066141;28;20029;-59
2022/11/21 13:17:43;;;;;;;7.15;5.32;;;1.70;99.90;;;;;;5066754;28;20055;-59
2022/11/21 13:20:19;;;;;;;6.25;4.55;;;1.70;99.90;;;;;;5071091;28;20025;-57
2022/11/21 13:22:45;;;;;;;6.80;4.68;;;1.70;99.90;;;;;;5069853;28;20082;-61
2022/11/21 13:25:39;;;;;;;6.50;5.15;;;1.70;99.90;;;;;;5070681;28;20016;-59